This is the latest recevied weather packets stored in our database for station/object DK4DAX-2. If no packets are shown the sender has not sent any weather packets the latest 10 day(s).
| Time | Temp. | Humidity | Pressure | Rain* | Wind** | Luminosity | Snow |
|---|---|---|---|---|---|---|---|
| 1787732103 | 21.11° C | 64% | 1013.8 hPa | 0 mm | - | - | - |
| 1787731204 | 19.44° C | 72% | 1013.8 hPa | 0 mm | - | - | - |
| 1787730303 | 18.89° C | 76% | 1013.7 hPa | 0 mm | - | - | - |
| 1787729403 | 18.33° C | 77% | 1013.7 hPa | 0 mm | - | - | - |
| 1787728504 | 18.33° C | 77% | 1013.4 hPa | 0 mm | - | - | - |
| 1787727604 | 18.33° C | 79% | 1013.2 hPa | 0 mm | - | - | - |
| 1787726703 | 17.78° C | 80% | 1013.4 hPa | 0 mm | - | - | - |
| 1787725803 | 17.78° C | 82% | 1013.3 hPa | 0 mm | - | - | - |
| 1787724904 | 17.22° C | 84% | 1013.3 hPa | 0 mm | - | - | - |
| 1787724003 | 17.22° C | 85% | 1013.5 hPa | 0 mm | - | - | - |
| 1787723103 | 17.22° C | 86% | 1013.4 hPa | 0 mm | - | - | - |
| 1787722204 | 16.67° C | 89% | 1013.1 hPa | 0 mm | - | - | - |
| 1787721303 | 16.67° C | 89% | 1013.3 hPa | 0 mm | - | - | - |
| 1787720403 | 16.11° C | 90% | 1013.4 hPa | 0 mm | - | - | - |
| 1787719504 | 16.11° C | 90% | 1013.2 hPa | 0 mm | - | - | - |
| 1787718604 | 16.11° C | 91% | 1013.4 hPa | 0 mm | - | - | - |
| 1787717703 | 15.56° C | 92% | 1013.3 hPa | 0 mm | - | - | - |
| 1787716803 | 15.56° C | 92% | 1013.3 hPa | 0 mm | - | - | - |
| 1787715904 | 15.56° C | 92% | 1013.3 hPa | 0 mm | - | - | - |
| 1787715004 | 15° C | 92% | 1013.3 hPa | 0 mm | - | - | - |
| 1787714103 | 15° C | 91% | 1013.3 hPa | 0 mm | - | - | - |
| 1787713204 | 15° C | 91% | 1013.5 hPa | 0 mm | - | - | - |
| 1787712304 | 15.56° C | 90% | 1013.3 hPa | 0 mm | - | - | - |
| 1787711403 | 15.56° C | 90% | 1013.3 hPa | 0 mm | - | - | - |
| 1787710503 | 15.56° C | 90% | 1013.2 hPa | 0 mm | - | - | - |
* Rain latest hour (hover to see other rain measurements)
** Current wind speed in m/s (hover to see current wind gust speed)